Time;durP1;ratioP1;P1;durP2;ratioP2;P2;SDS_P1;SDS_P2;PMS_P1;PMS_P2;Temp;Humidity;BMP_temperature;BMP_pressure;BME280_temperature;BME280_humidity;BME280_pressure;Samples;Min_cycle;Max_cycle;Signal;HPM_P1;HPM_P2
2023/04/14 00:00:32;;;;;;;2.90;1.00;;;8.80;96.60;;;;;;5021396;28;20216;-90
2023/04/14 00:02:58;;;;;;;1.85;0.90;;;8.70;96.50;;;;;;5002578;28;20021;-89
2023/04/14 00:05:28;;;;;;;2.47;0.90;;;8.70;96.40;;;;;;4996002;28;20726;-90
2023/04/14 00:07:54;;;;;;;3.00;0.90;;;8.60;96.30;;;;;;5001118;28;20492;-89
2023/04/14 00:10:19;;;;;;;3.42;1.52;;;8.60;96.30;;;;;;4997463;28;20112;-90
2023/04/14 00:12:45;;;;;;;2.47;1.03;;;8.60;96.20;;;;;;5008367;28;20027;-90
2023/04/14 00:15:11;;;;;;;1.85;0.90;;;8.50;96.20;;;;;;4997880;28;20178;-90
2023/04/14 00:17:36;;;;;;;1.97;1.00;;;8.50;96.20;;;;;;5026281;28;20106;-90
2023/04/14 00:20:03;;;;;;;2.78;1.40;;;8.40;96.20;;;;;;5004274;28;20028;-89
2023/04/14 00:22:29;;;;;;;2.83;1.00;;;8.40;96.20;;;;;;4996214;28;20282;-91
2023/04/14 00:24:55;;;;;;;2.58;0.88;;;8.40;96.20;;;;;;5011031;28;20508;-90
2023/04/14 00:27:20;;;;;;;2.30;1.00;;;8.30;96.20;;;;;;4997964;28;20158;-90
2023/04/14 00:29:46;;;;;;;1.87;0.90;;;8.30;96.30;;;;;;5018969;28;20052;-90
2023/04/14 00:32:12;;;;;;;3.28;1.10;;;8.20;96.20;;;;;;5006118;28;20036;-90
2023/04/14 00:34:37;;;;;;;2.13;1.00;;;8.20;96.30;;;;;;5019200;28;20029;-90
2023/04/14 00:37:03;;;;;;;1.40;0.87;;;8.20;96.30;;;;;;4996436;28;20325;-90
2023/04/14 00:39:29;;;;;;;5.33;1.40;;;8.10;96.30;;;;;;5019721;28;20209;-90
2023/04/14 00:41:55;;;;;;;3.13;1.30;;;8.10;96.40;;;;;;5000471;28;20017;-90
2023/04/14 00:44:22;;;;;;;2.75;1.00;;;8.00;96.40;;;;;;4993724;28;20103;-90
2023/04/14 00:46:48;;;;;;;1.63;0.80;;;8.00;96.40;;;;;;5023484;28;20552;-90
2023/04/14 00:49:15;;;;;;;3.20;1.00;;;8.00;96.60;;;;;;5022968;28;20116;-90
2023/04/14 00:51:44;;;;;;;4.10;1.10;;;7.90;96.80;;;;;;4991243;28;20060;-89
2023/04/14 00:54:10;;;;;;;1.58;0.90;;;7.90;97.10;;;;;;5015144;28;20128;-89
2023/04/14 00:56:36;;;;;;;3.05;1.17;;;7.90;97.50;;;;;;5021326;28;20056;-90
2023/04/14 00:59:02;;;;;;;2.43;1.00;;;7.90;97.80;;;;;;4999222;28;20038;-89
2023/04/14 01:01:28;;;;;;;1.98;1.00;;;7.90;98.10;;;;;;5011725;28;20025;-90
2023/04/14 01:03:55;;;;;;;1.60;0.90;;;7.90;98.30;;;;;;5021804;28;20069;-90
2023/04/14 01:06:21;;;;;;;2.53;0.90;;;8.00;98.40;;;;;;5005936;28;20389;-90
2023/04/14 01:08:48;;;;;;;2.27;1.00;;;8.10;98.60;;;;;;5002571;28;20032;-90
2023/04/14 01:11:44;;;;;;;2.63;1.00;;;8.10;98.60;;;;;;5018923;28;20154;-90
2023/04/14 01:14:18;;;;;;;1.77;1.17;;;8.10;98.30;;;;;;5021664;28;20274;-90
2023/04/14 01:16:48;;;;;;;2.95;1.00;;;8.10;98.30;;;;;;4995704;28;20033;-90
2023/04/14 01:19:58;;;;;;;2.92;1.10;;;8.10;98.30;;;;;;5002942;28;20314;-90
2023/04/14 01:22:30;;;;;;;2.90;0.83;;;8.10;97.70;;;;;;4995384;28;20143;-90
2023/04/14 01:25:17;;;;;;;2.55;0.93;;;8.10;97.70;;;;;;4978951;28;20025;-89
2023/04/14 01:28:22;;;;;;;1.90;1.00;;;8.10;97.30;;;;;;5013462;28;20048;-90
2023/04/14 01:31:16;;;;;;;2.30;1.05;;;8.00;97.10;;;;;;4963283;28;20125;-90
2023/04/14 01:33:44;;;;;;;1.98;0.90;;;8.00;97.10;;;;;;5028542;28;20045;-90
2023/04/14 01:36:15;;;;;;;2.13;1.00;;;7.90;97.10;;;;;;5012080;28;20533;-90
2023/04/14 01:38:44;;;;;;;1.73;0.80;;;7.80;97.10;;;;;;5006511;28;20052;-90
2023/04/14 01:41:12;;;;;;;2.45;1.10;;;7.80;97.10;;;;;;5038186;28;20099;-90
2023/04/14 01:43:43;;;;;;;2.67;1.05;;;7.70;97.10;;;;;;5019234;28;20089;-90
2023/04/14 01:46:14;;;;;;;3.03;0.98;;;7.70;97.20;;;;;;4995978;28;20122;-89
2023/04/14 01:48:41;;;;;;;1.73;0.90;;;7.60;97.20;;;;;;4998503;28;20499;-89
2023/04/14 01:51:08;;;;;;;2.00;0.90;;;7.60;97.20;;;;;;5020632;28;20116;-89
2023/04/14 01:53:38;;;;;;;1.67;0.90;;;7.50;97.20;;;;;;5016270;28;20036;-89
2023/04/14 01:56:08;;;;;;;4.30;1.10;;;7.50;97.20;;;;;;4987598;28;20047;-89
2023/04/14 01:58:35;;;;;;;1.80;0.93;;;7.50;97.30;;;;;;5005290;28;20061;-90
2023/04/14 02:01:01;;;;;;;1.67;0.80;;;7.40;97.30;;;;;;4997145;28;20108;-89
2023/04/14 02:03:28;;;;;;;2.78;1.00;;;7.40;97.30;;;;;;4992231;28;20259;-90
2023/04/14 02:05:54;;;;;;;2.00;0.90;;;7.30;97.30;;;;;;5011718;28;20048;-89
2023/04/14 02:08:22;;;;;;;2.63;1.00;;;7.40;97.40;;;;;;4998870;28;20021;-90
2023/04/14 02:10:50;;;;;;;2.72;1.20;;;7.30;97.40;;;;;;5004757;28;20111;-90
2023/04/14 02:13:18;;;;;;;2.30;1.03;;;7.30;97.40;;;;;;4998134;28;20021;-90
2023/04/14 02:15:47;;;;;;;2.38;1.10;;;7.30;97.40;;;;;;4996047;28;20544;-90
2023/04/14 02:18:14;;;;;;;1.95;1.02;;;7.20;97.40;;;;;;4995149;28;20131;-91
2023/04/14 02:20:43;;;;;;;1.85;0.90;;;7.20;97.40;;;;;;4996988;28;20071;-90
2023/04/14 02:23:10;;;;;;;2.60;1.10;;;7.20;97.40;;;;;;5002507;28;20033;-89
2023/04/14 02:25:39;;;;;;;2.57;0.90;;;7.10;97.30;;;;;;4987696;28;20108;-90
2023/04/14 02:28:09;;;;;;;2.20;0.90;;;7.10;97.30;;;;;;5029296;28;20025;-89
2023/04/14 02:30:38;;;;;;;2.97;1.33;;;7.10;97.40;;;;;;5010584;28;20155;-90
2023/04/14 02:33:18;;;;;;;2.70;1.00;;;7.00;97.30;;;;;;4982235;28;20508;-89
2023/04/14 02:35:59;;;;;;;1.90;1.10;;;7.00;97.30;;;;;;4995605;28;20591;-90
2023/04/14 02:38:42;;;;;;;1.50;0.83;;;7.00;97.20;;;;;;5007764;28;20094;-90
2023/04/14 02:41:15;;;;;;;1.77;0.82;;;7.00;97.20;;;;;;4980943;28;20493;-89
2023/04/14 02:43:49;;;;;;;3.90;1.02;;;6.90;97.20;;;;;;5013799;28;20039;-90
2023/04/14 02:46:18;;;;;;;1.60;1.00;;;6.90;97.20;;;;;;5014188;28;20377;-90
2023/04/14 02:48:45;;;;;;;2.00;0.98;;;6.80;97.30;;;;;;5026617;28;20029;-90
2023/04/14 02:51:13;;;;;;;1.63;1.00;;;6.80;97.40;;;;;;5000789;28;20167;-90
2023/04/14 02:53:39;;;;;;;2.95;1.02;;;6.70;97.40;;;;;;5022914;28;20025;-90
2023/04/14 02:56:06;;;;;;;2.70;0.90;;;6.70;97.50;;;;;;5001881;28;20487;-89
2023/04/14 02:58:32;;;;;;;2.13;0.98;;;6.70;97.50;;;;;;5002156;28;20041;-89
2023/04/14 03:00:59;;;;;;;2.10;0.95;;;6.70;97.80;;;;;;5011243;28;20485;-90
2023/04/14 03:03:27;;;;;;;2.57;0.90;;;6.60;97.50;;;;;;4987130;28;20238;-89
2023/04/14 03:05:53;;;;;;;1.90;0.82;;;6.60;97.50;;;;;;5018943;28;20043;-89
2023/04/14 03:08:19;;;;;;;1.85;1.00;;;6.60;97.60;;;;;;5020709;28;20621;-90
2023/04/14 03:10:47;;;;;;;2.33;1.00;;;6.50;97.60;;;;;;5008527;28;20025;-90
2023/04/14 03:13:14;;;;;;;2.35;1.10;;;6.50;97.70;;;;;;4998575;28;20025;-90
2023/04/14 03:15:41;;;;;;;3.57;1.07;;;6.50;97.70;;;;;;5024446;28;20025;-89
2023/04/14 03:18:07;;;;;;;2.75;1.20;;;6.50;97.70;;;;;;5002801;28;20123;-89
2023/04/14 03:20:35;;;;;;;2.22;1.30;;;6.50;97.70;;;;;;5002828;28;20047;-90
2023/04/14 03:23:03;;;;;;;3.17;1.30;;;6.40;97.80;;;;;;5001084;28;20029;-89
2023/04/14 03:25:35;;;;;;;2.40;1.25;;;6.40;97.80;;;;;;5010330;28;20039;-89
2023/04/14 03:28:05;;;;;;;3.90;1.20;;;6.40;97.90;;;;;;4996041;28;20119;-89
2023/04/14 03:30:32;;;;;;;3.42;1.20;;;6.40;98.30;;;;;;5025862;28;20048;-90
2023/04/14 03:33:04;;;;;;;3.08;1.40;;;6.40;98.10;;;;;;5022110;28;20033;-89
2023/04/14 03:35:31;;;;;;;1.98;1.00;;;6.40;98.10;;;;;;5020029;28;20045;-89
2023/04/14 03:37:59;;;;;;;2.25;1.17;;;6.40;98.10;;;;;;5018456;28;20033;-89
2023/04/14 03:40:30;;;;;;;3.63;1.33;;;6.40;98.20;;;;;;5022202;28;20262;-89
2023/04/14 03:42:57;;;;;;;2.75;1.17;;;6.30;98.20;;;;;;5002667;28;20028;-89
2023/04/14 03:45:25;;;;;;;2.20;1.15;;;6.30;98.20;;;;;;5003131;28;20535;-90
2023/04/14 03:48:02;;;;;;;3.60;1.65;;;6.30;98.20;;;;;;5013109;28;20029;-89
2023/04/14 03:50:30;;;;;;;2.42;1.30;;;6.30;98.20;;;;;;5034162;28;20028;-90
2023/04/14 03:53:00;;;;;;;2.70;1.10;;;6.30;98.30;;;;;;5003650;28;20472;-89
2023/04/14 03:55:28;;;;;;;5.22;1.40;;;6.30;98.30;;;;;;4997153;28;20128;-90
2023/04/14 03:57:56;;;;;;;2.67;1.10;;;6.30;98.40;;;;;;5026689;28;20383;-89
2023/04/14 04:00:22;;;;;;;4.03;1.30;;;6.20;98.30;;;;;;5002558;28;20443;-89
2023/04/14 04:02:49;;;;;;;2.78;0.90;;;6.20;98.40;;;;;;5018771;28;20025;-90
2023/04/14 04:05:15;;;;;;;4.17;1.40;;;6.20;98.40;;;;;;4999222;28;20485;-89
2023/04/14 04:07:43;;;;;;;2.95;1.10;;;6.20;98.50;;;;;;5021177;28;20078;-89
2023/04/14 04:10:12;;;;;;;3.00;1.13;;;6.20;98.60;;;;;;4995576;28;20390;-89
2023/04/14 04:12:41;;;;;;;3.00;1.23;;;6.20;98.60;;;;;;5012069;28;20427;-90
2023/04/14 04:15:08;;;;;;;3.25;1.30;;;6.20;98.60;;;;;;5019081;28;20021;-89
2023/04/14 04:17:35;;;;;;;3.23;1.00;;;6.20;98.50;;;;;;4990647;28;20020;-89
2023/04/14 04:20:05;;;;;;;3.67;1.27;;;6.10;98.50;;;;;;5022494;28;20087;-89
2023/04/14 04:22:35;;;;;;;2.65;1.25;;;6.10;98.50;;;;;;5008312;28;20041;-90
2023/04/14 04:25:01;;;;;;;1.88;1.15;;;6.10;98.50;;;;;;5005782;28;20037;-89
2023/04/14 04:27:28;;;;;;;2.95;1.27;;;6.10;98.50;;;;;;5029981;28;20664;-90
2023/04/14 04:29:53;;;;;;;3.53;1.37;;;6.10;98.50;;;;;;5019924;28;20053;-89
2023/04/14 04:32:19;;;;;;;5.13;1.52;;;6.00;98.50;;;;;;4986164;28;20244;-89
2023/04/14 04:34:47;;;;;;;2.58;1.27;;;6.10;98.60;;;;;;5008399;28;20791;-90
2023/04/14 04:37:13;;;;;;;3.70;1.20;;;6.00;98.60;;;;;;5015974;28;20634;-90
2023/04/14 04:39:39;;;;;;;3.95;1.42;;;6.00;98.60;;;;;;5007285;28;20475;-90
2023/04/14 04:42:05;;;;;;;2.80;1.30;;;6.00;98.70;;;;;;5013702;28;20040;-89
2023/04/14 04:44:32;;;;;;;2.10;1.10;;;6.00;98.70;;;;;;5021966;28;20033;-90
2023/04/14 04:46:59;;;;;;;3.07;1.50;;;6.00;98.80;;;;;;4996418;28;20371;-89
2023/04/14 04:49:25;;;;;;;2.97;1.30;;;6.00;98.90;;;;;;4996756;28;20037;-89
2023/04/14 04:51:51;;;;;;;2.75;1.20;;;6.00;98.80;;;;;;5020604;28;20025;-89
2023/04/14 04:54:17;;;;;;;2.97;1.20;;;6.00;98.90;;;;;;5022598;28;20253;-90
2023/04/14 04:56:43;;;;;;;3.55;1.13;;;6.00;98.90;;;;;;5021869;28;20029;-90
2023/04/14 04:59:08;;;;;;;3.72;1.30;;;6.00;98.90;;;;;;5008804;28;20294;-90
2023/04/14 05:01:34;;;;;;;2.30;1.10;;;6.00;99.00;;;;;;5008078;28;20022;-89
2023/04/14 05:04:00;;;;;;;3.83;1.20;;;6.00;99.00;;;;;;5006952;28;20667;-88
2023/04/14 05:06:27;;;;;;;4.50;1.40;;;6.00;99.20;;;;;;5020996;28;20021;-89
2023/04/14 05:08:56;;;;;;;5.55;1.38;;;6.00;99.30;;;;;;5025580;28;20102;-89
2023/04/14 05:11:22;;;;;;;3.28;1.30;;;6.00;99.40;;;;;;5011104;28;20144;-90
2023/04/14 05:13:47;;;;;;;3.20;1.33;;;6.00;99.90;;;;;;5008974;28;20032;-89
2023/04/14 05:16:14;;;;;;;2.30;1.30;;;5.90;99.70;;;;;;5002023;28;20147;-90
2023/04/14 05:18:40;;;;;;;3.03;1.42;;;6.00;99.80;;;;;;5016396;28;20032;-90
2023/04/14 05:21:08;;;;;;;3.33;1.30;;;6.00;99.90;;;;;;4984635;28;20068;-90
2023/04/14 05:23:36;;;;;;;3.63;1.42;;;6.00;99.90;;;;;;4992312;28;20325;-90
2023/04/14 05:26:03;;;;;;;3.80;1.27;;;6.00;99.90;;;;;;4998127;28;20125;-89
2023/04/14 05:28:29;;;;;;;3.88;1.40;;;6.10;99.90;;;;;;4985266;28;20045;-88
2023/04/14 05:30:54;;;;;;;2.63;1.33;;;6.10;99.90;;;;;;5001229;28;20028;-88
2023/04/14 05:33:20;;;;;;;3.33;1.70;;;6.20;99.90;;;;;;5008861;28;20030;-89
2023/04/14 05:35:46;;;;;;;2.95;1.20;;;6.20;99.90;;;;;;5020923;28;20063;-88
2023/04/14 05:38:12;;;;;;;4.13;1.40;;;6.30;99.90;;;;;;5005413;28;20247;-89
2023/04/14 05:40:38;;;;;;;3.97;1.60;;;6.30;99.90;;;;;;4997443;28;20051;-90
2023/04/14 05:43:04;;;;;;;6.13;1.50;;;6.50;99.90;;;;;;5000818;28;20032;-89
2023/04/14 05:45:30;;;;;;;2.95;1.40;;;6.50;99.90;;;;;;4989673;28;20025;-89
2023/04/14 05:47:56;;;;;;;3.90;1.23;;;6.60;99.90;;;;;;4998919;28;20025;-89
2023/04/14 05:50:22;;;;;;;3.60;1.50;;;6.70;99.90;;;;;;4978966;28;20660;-89
2023/04/14 05:52:48;;;;;;;4.83;1.30;;;6.70;99.90;;;;;;5013437;28;20198;-89
2023/04/14 05:55:14;;;;;;;3.22;1.33;;;6.80;99.90;;;;;;5001391;28;20035;-89
2023/04/14 05:57:40;;;;;;;2.80;1.48;;;6.90;99.90;;;;;;4999269;28;20013;-89
2023/04/14 06:00:07;;;;;;;1.88;1.10;;;7.00;99.90;;;;;;4992901;28;20572;-88
2023/04/14 06:02:32;;;;;;;4.90;1.60;;;7.10;99.90;;;;;;4991718;28;20586;-90
2023/04/14 06:05:00;;;;;;;2.97;1.35;;;7.20;99.90;;;;;;4999114;28;20039;-88
2023/04/14 06:07:27;;;;;;;4.68;1.60;;;7.30;99.90;;;;;;4969295;28;20517;-89
2023/04/14 06:09:56;;;;;;;3.07;1.67;;;7.40;99.90;;;;;;4993076;28;20037;-89
2023/04/14 06:12:40;;;;;;;2.88;1.38;;;7.50;99.90;;;;;;5017777;28;20516;-89
2023/04/14 06:15:06;;;;;;;4.13;1.63;;;7.60;99.90;;;;;;5011758;28;20032;-89
2023/04/14 06:17:32;;;;;;;2.77;1.43;;;7.70;99.90;;;;;;5016121;28;20486;-88
2023/04/14 06:19:58;;;;;;;2.92;1.63;;;7.80;99.90;;;;;;5006807;28;20033;-89
2023/04/14 06:22:28;;;;;;;2.60;1.40;;;8.00;99.90;;;;;;4999313;28;20160;-89
2023/04/14 06:24:57;;;;;;;2.53;1.40;;;8.10;99.90;;;;;;4986973;28;20043;-89
2023/04/14 06:27:24;;;;;;;2.90;1.40;;;8.20;99.90;;;;;;4999572;28;20033;-90
2023/04/14 06:29:50;;;;;;;3.33;1.17;;;8.40;99.90;;;;;;4999109;28;20052;-89
2023/04/14 06:32:17;;;;;;;3.50;1.60;;;8.60;99.90;;;;;;4982423;28;20223;-91
2023/04/14 06:34:43;;;;;;;2.33;1.20;;;8.80;99.90;;;;;;4979251;28;20479;-88
2023/04/14 06:37:08;;;;;;;3.80;1.60;;;9.00;99.90;;;;;;4981922;28;20082;-88
2023/04/14 06:39:34;;;;;;;3.42;1.40;;;9.10;99.90;;;;;;5006293;28;20086;-90
2023/04/14 06:42:00;;;;;;;2.75;1.15;;;9.30;99.90;;;;;;4977770;28;20029;-89
2023/04/14 06:44:26;;;;;;;2.67;1.07;;;9.50;99.90;;;;;;5007935;28;20025;-89
2023/04/14 06:46:51;;;;;;;2.58;1.00;;;9.60;99.90;;;;;;4983269;28;20131;-89
2023/04/14 06:49:18;;;;;;;1.67;1.00;;;9.60;99.90;;;;;;5027338;28;20468;-90
2023/04/14 06:51:46;;;;;;;1.73;1.00;;;9.70;99.90;;;;;;4970622;28;20035;-89
2023/04/14 06:54:12;;;;;;;1.83;1.27;;;9.80;99.90;;;;;;5016731;28;20036;-90
2023/04/14 06:56:38;;;;;;;2.92;1.17;;;10.00;99.90;;;;;;5004900;28;20120;-89
2023/04/14 06:59:03;;;;;;;1.83;1.10;;;10.00;99.90;;;;;;5023439;28;20032;-90
2023/04/14 07:01:29;;;;;;;2.90;1.05;;;10.20;99.90;;;;;;4998782;28;20032;-88
2023/04/14 07:03:55;;;;;;;2.43;0.87;;;10.30;99.90;;;;;;4991515;28;20843;-87
2023/04/14 07:06:21;;;;;;;2.38;1.05;;;10.40;99.90;;;;;;5007967;28;20051;-89
2023/04/14 07:08:47;;;;;;;2.27;1.00;;;10.50;99.90;;;;;;4985976;28;20045;-90
2023/04/14 07:11:12;;;;;;;3.25;1.10;;;10.70;99.90;;;;;;4992757;28;20102;-90
2023/04/14 07:13:39;;;;;;;2.25;1.10;;;10.80;99.90;;;;;;5004853;28;20141;-89
2023/04/14 07:16:06;;;;;;;2.33;1.10;;;11.00;99.90;;;;;;5020972;28;20020;-88
2023/04/14 07:18:32;;;;;;;2.50;1.20;;;11.10;99.90;;;;;;5009212;28;20033;-88
2023/04/14 07:21:01;;;;;;;3.22;1.20;;;11.30;99.90;;;;;;5000328;28;20187;-88
2023/04/14 07:23:27;;;;;;;2.30;1.20;;;11.50;99.90;;;;;;4976665;28;20187;-88
2023/04/14 07:25:55;;;;;;;2.43;1.20;;;11.70;99.90;;;;;;5008420;28;20584;-90
2023/04/14 07:28:21;;;;;;;2.08;1.20;;;12.00;99.90;;;;;;5023900;28;20024;-89
2023/04/14 07:30:49;;;;;;;2.10;0.90;;;12.30;99.90;;;;;;5002656;28;20478;-91
2023/04/14 07:33:20;;;;;;;1.77;0.75;;;12.70;99.90;;;;;;5016462;28;20410;-89
2023/04/14 07:35:51;;;;;;;1.13;0.90;;;13.00;99.90;;;;;;5013062;28;20146;-89
2023/04/14 07:38:16;;;;;;;1.77;1.00;;;13.30;99.90;;;;;;5016799;28;20028;-88
2023/04/14 07:40:42;;;;;;;2.35;0.85;;;13.60;99.90;;;;;;4994317;28;20859;-89
2023/04/14 07:43:08;;;;;;;1.27;0.80;;;14.00;99.90;;;;;;5015693;28;20025;-88
2023/04/14 07:45:34;;;;;;;1.63;0.80;;;14.40;99.90;;;;;;5006947;28;20032;-89
2023/04/14 07:48:00;;;;;;;1.30;0.95;;;14.80;99.90;;;;;;5017371;28;20433;-89
2023/04/14 07:50:26;;;;;;;2.42;1.00;;;15.30;99.90;;;;;;5026448;28;20220;-89
2023/04/14 07:52:52;;;;;;;0.70;0.70;;;15.80;99.90;;;;;;5022544;28;20079;-87
2023/04/14 07:55:18;;;;;;;1.38;0.80;;;16.20;99.90;;;;;;4949730;28;20779;-89
2023/04/14 07:57:43;;;;;;;2.30;1.03;;;16.60;99.90;;;;;;5000267;28;20205;-89
2023/04/14 08:00:10;;;;;;;1.38;0.75;;;17.10;99.90;;;;;;5002321;28;20548;-91
2023/04/14 08:02:36;;;;;;;1.55;0.80;;;17.40;99.90;;;;;;4989101;28;20134;-89
2023/04/14 08:05:02;;;;;;;2.75;0.80;;;17.80;99.90;;;;;;5005819;28;20095;-89
2023/04/14 08:07:29;;;;;;;1.37;0.80;;;18.10;99.90;;;;;;4989220;28;20044;-89
2023/04/14 08:09:54;;;;;;;2.50;0.90;;;18.30;99.90;;;;;;4988051;28;20017;-90
2023/04/14 08:12:20;;;;;;;2.30;0.80;;;18.60;99.90;;;;;;4997976;28;20596;-88
2023/04/14 08:14:46;;;;;;;1.53;1.00;;;18.90;99.90;;;;;;5006633;28;20190;-90
2023/04/14 08:17:13;;;;;;;1.20;0.80;;;19.20;99.90;;;;;;4983460;28;20013;-89
2023/04/14 08:19:39;;;;;;;2.38;1.10;;;19.40;99.90;;;;;;5006604;28;20233;-89
2023/04/14 08:22:04;;;;;;;1.55;1.05;;;19.80;99.90;;;;;;4999663;28;20060;-90
2023/04/14 08:24:30;;;;;;;1.30;0.80;;;20.00;99.90;;;;;;4993328;28;20136;-91
2023/04/14 08:26:56;;;;;;;1.65;0.85;;;20.20;99.90;;;;;;4997663;28;20438;-89
2023/04/14 08:29:22;;;;;;;1.20;0.90;;;20.30;99.90;;;;;;4970558;28;20474;-90
2023/04/14 08:31:48;;;;;;;1.25;0.90;;;20.40;99.90;;;;;;4972087;28;20407;-90
2023/04/14 08:34:14;;;;;;;2.43;0.90;;;20.50;99.90;;;;;;4964799;28;20558;-89
2023/04/14 08:36:40;;;;;;;1.00;0.80;;;20.60;99.90;;;;;;4980528;28;20463;-90
2023/04/14 08:39:06;;;;;;;1.67;0.80;;;20.70;99.90;;;;;;4986035;28;20018;-89
2023/04/14 08:41:38;;;;;;;1.83;1.10;;;20.90;99.90;;;;;;4954508;28;20036;-89
2023/04/14 08:44:04;;;;;;;1.67;0.87;;;21.00;99.90;;;;;;4963735;28;20304;-88
2023/04/14 08:46:30;;;;;;;1.40;0.88;;;21.20;99.90;;;;;;4995786;28;20030;-89
2023/04/14 08:49:08;;;;;;;1.67;0.80;;;21.30;99.90;;;;;;4980829;28;20053;-87
2023/04/14 08:51:38;;;;;;;2.33;0.82;;;21.40;99.90;;;;;;4987188;28;20247;-89
2023/04/14 08:54:11;;;;;;;1.27;0.80;;;21.60;99.90;;;;;;4980917;28;20092;-89
2023/04/14 08:56:42;;;;;;;2.03;0.77;;;21.60;99.90;;;;;;4959022;28;20053;-90
2023/04/14 08:59:09;;;;;;;1.05;0.90;;;21.70;99.90;;;;;;4977339;28;20026;-90
2023/04/14 09:01:36;;;;;;;1.42;0.73;;;21.80;99.90;;;;;;4960392;28;20230;-89
2023/04/14 09:04:03;;;;;;;1.77;0.82;;;21.90;99.90;;;;;;4974103;28;20033;-89
2023/04/14 09:06:33;;;;;;;2.33;1.00;;;22.00;99.90;;;;;;4974658;28;20026;-88
2023/04/14 09:09:06;;;;;;;1.55;0.82;;;22.20;99.90;;;;;;4981125;28;20539;-90
2023/04/14 09:11:32;;;;;;;1.80;0.90;;;22.40;99.90;;;;;;4967627;28;20510;-89
2023/04/14 09:13:58;;;;;;;1.15;0.80;;;22.70;99.90;;;;;;4980445;28;20027;-87
2023/04/14 09:16:25;;;;;;;2.13;1.00;;;22.90;99.90;;;;;;4978298;28;20049;-88
2023/04/14 09:18:53;;;;;;;1.53;0.90;;;23.10;99.90;;;;;;4996234;28;20316;-88
2023/04/14 09:21:19;;;;;;;1.80;1.10;;;23.40;99.90;;;;;;4976399;28;20085;-89
2023/04/14 09:23:46;;;;;;;3.00;1.13;;;23.70;99.90;;;;;;4995067;28;20245;-87
2023/04/14 09:26:12;;;;;;;2.00;1.00;;;23.90;99.90;;;;;;4993595;28;20066;-89
2023/04/14 09:28:38;;;;;;;1.60;1.00;;;24.00;99.90;;;;;;4998821;28;20131;-89
2023/04/14 09:31:04;;;;;;;1.67;0.70;;;24.10;99.90;;;;;;5002434;28;20058;-90
2023/04/14 09:33:31;;;;;;;1.08;0.80;;;24.10;99.90;;;;;;5011909;28;20024;-88
2023/04/14 09:35:57;;;;;;;1.25;0.80;;;24.10;99.90;;;;;;4998006;28;20044;-89
2023/04/14 09:38:37;;;;;;;1.50;0.70;;;24.10;99.40;;;;;;5024579;28;20030;-89
2023/04/14 09:41:06;;;;;;;1.77;0.75;;;24.00;96.10;;;;;;4994588;28;20026;-88
2023/04/14 09:43:32;;;;;;;1.30;0.70;;;23.90;98.50;;;;;;4994244;28;20021;-89
2023/04/14 09:46:04;;;;;;;1.05;0.80;;;23.90;99.90;;;;;;5004409;28;20068;-89
2023/04/14 09:48:30;;;;;;;1.65;0.60;;;23.90;98.10;;;;;;5008911;28;20020;-88
2023/04/14 09:51:12;;;;;;;2.40;0.80;;;23.80;99.60;;;;;;4996711;28;20053;-89
2023/04/14 09:53:39;;;;;;;1.53;0.70;;;23.70;97.10;;;;;;4995073;28;20029;-89
2023/04/14 09:56:09;;;;;;;0.77;0.60;;;23.70;99.90;;;;;;4998329;28;20204;-89
2023/04/14 09:58:36;;;;;;;1.75;0.70;;;23.80;98.80;;;;;;4981740;28;20030;-91
2023/04/14 10:01:04;;;;;;;1.05;0.63;;;23.70;99.10;;;;;;5008035;28;20022;-88
2023/04/14 10:03:33;;;;;;;1.95;0.90;;;23.70;99.40;;;;;;4994545;28;20018;-89
2023/04/14 10:06:00;;;;;;;1.90;0.80;;;23.70;99.90;;;;;;4993608;28;20036;-88
2023/04/14 10:08:37;;;;;;;1.83;0.80;;;23.70;99.20;;;;;;4989884;28;20017;-90
2023/04/14 10:11:33;;;;;;;1.52;0.90;;;23.60;97.40;;;;;;5010346;28;20086;-87
2023/04/14 10:14:04;;;;;;;1.55;0.90;;;23.60;98.80;;;;;;4980605;28;20337;-88
2023/04/14 10:16:30;;;;;;;2.78;0.95;;;23.50;97.90;;;;;;5011262;28;20014;-90
2023/04/14 10:18:57;;;;;;;1.37;0.80;;;23.40;98.70;;;;;;4989623;28;20615;-89
2023/04/14 10:21:23;;;;;;;2.08;0.85;;;23.20;98.90;;;;;;5017395;28;20056;-89
2023/04/14 10:23:50;;;;;;;2.10;1.02;;;23.10;99.40;;;;;;5000086;28;20033;-87
2023/04/14 10:26:17;;;;;;;0.95;0.80;;;23.00;99.90;;;;;;4999906;28;20062;-89
2023/04/14 10:28:45;;;;;;;2.20;1.05;;;22.90;99.40;;;;;;5010393;28;20521;-88
2023/04/14 10:31:19;;;;;;;2.07;0.80;;;22.80;98.90;;;;;;4995634;28;20021;-89
2023/04/14 10:33:45;;;;;;;2.25;0.93;;;22.70;98.20;;;;;;4984374;28;20030;-89
2023/04/14 10:36:12;;;;;;;1.60;1.05;;;22.60;99.90;;;;;;5014556;28;20285;-88
2023/04/14 10:38:45;;;;;;;1.92;0.77;;;22.70;99.90;;;;;;5002685;28;20078;-88
2023/04/14 10:41:11;;;;;;;1.67;0.90;;;22.80;99.60;;;;;;5028822;28;20052;-89
2023/04/14 10:43:38;;;;;;;1.80;1.03;;;23.00;99.90;;;;;;5017946;28;20498;-89
2023/04/14 10:46:06;;;;;;;1.75;1.00;;;23.10;99.90;;;;;;4989818;28;21164;-90
2023/04/14 10:48:33;;;;;;;2.10;0.90;;;23.30;99.90;;;;;;4995902;28;20645;-86
2023/04/14 10:51:02;;;;;;;2.60;1.05;;;23.30;99.90;;;;;;5018783;28;20109;-90
2023/04/14 10:53:37;;;;;;;2.90;1.10;;;23.10;98.70;;;;;;4982381;28;20507;-90
2023/04/14 10:56:05;;;;;;;2.13;1.10;;;23.00;98.00;;;;;;5026794;28;20570;-89
2023/04/14 10:58:33;;;;;;;2.00;1.10;;;23.00;99.90;;;;;;5018022;28;20550;-92
2023/04/14 11:00:59;;;;;;;2.22;1.00;;;23.00;99.90;;;;;;5014057;28;20380;-90
2023/04/14 11:03:30;;;;;;;1.40;0.87;;;23.20;99.90;;;;;;4968823;28;20021;-92
2023/04/14 11:05:57;;;;;;;1.23;0.80;;;23.40;99.90;;;;;;5008166;28;20730;-90
2023/04/14 11:08:33;;;;;;;2.78;0.80;;;23.70;99.90;;;;;;4991933;28;20479;-87
2023/04/14 11:11:05;;;;;;;1.58;0.80;;;23.90;99.90;;;;;;5006810;28;20411;-88
2023/04/14 11:13:33;;;;;;;2.10;0.90;;;24.20;99.90;;;;;;5037565;28;20828;-89
2023/04/14 11:16:03;;;;;;;2.27;0.87;;;24.40;99.90;;;;;;4997511;28;20065;-90
2023/04/14 11:18:29;;;;;;;1.52;0.88;;;24.60;97.40;;;;;;4984721;28;20022;-87
2023/04/14 11:21:09;;;;;;;1.25;0.90;;;24.60;99.90;;;;;;5007228;28;20273;-91
2023/04/14 11:23:36;;;;;;;2.05;0.90;;;24.70;90.80;;;;;;5006111;28;20745;-89
2023/04/14 11:26:07;;;;;;;1.77;0.85;;;24.80;99.20;;;;;;4975965;28;20598;-91
2023/04/14 11:28:38;;;;;;;1.40;0.70;;;24.80;97.50;;;;;;5006457;28;20050;-87
2023/04/14 11:31:07;;;;;;;1.13;0.70;;;24.90;98.00;;;;;;4985137;28;22071;-90
2023/04/14 11:33:36;;;;;;;1.33;0.77;;;24.80;96.20;;;;;;4972553;28;20153;-89
2023/04/14 11:36:04;;;;;;;1.83;0.80;;;24.60;95.00;;;;;;4975750;28;20614;-88
2023/04/14 11:38:30;;;;;;;2.28;0.90;;;24.30;95.90;;;;;;4985771;28;20401;-91
2023/04/14 11:40:57;;;;;;;2.17;0.80;;;24.00;96.80;;;;;;4982175;28;20022;-90
2023/04/14 11:43:23;;;;;;;1.88;0.85;;;23.80;97.00;;;;;;4974180;28;20026;-88
2023/04/14 11:45:51;;;;;;;1.45;0.77;;;23.60;97.70;;;;;;4978235;28;20028;-89
2023/04/14 11:48:18;;;;;;;1.60;0.70;;;23.50;97.70;;;;;;4962411;28;20081;-88
2023/04/14 11:50:47;;;;;;;1.30;0.70;;;23.30;97.00;;;;;;4964110;28;20362;-91
2023/04/14 11:53:17;;;;;;;1.60;0.67;;;23.10;95.70;;;;;;4978039;28;20022;-89
2023/04/14 11:55:45;;;;;;;1.75;0.80;;;23.00;97.20;;;;;;4983861;28;20055;-90
2023/04/14 11:58:11;;;;;;;1.00;0.70;;;23.00;98.20;;;;;;4990944;28;20080;-87
2023/04/14 12:00:38;;;;;;;2.10;0.90;;;23.00;98.20;;;;;;4983988;28;20544;-89
2023/04/14 12:03:06;;;;;;;1.77;0.70;;;22.90;97.20;;;;;;4984459;28;20421;-88
2023/04/14 12:05:32;;;;;;;1.90;0.70;;;22.80;97.30;;;;;;4956868;28;20030;-91
2023/04/14 12:08:07;;;;;;;2.97;0.80;;;22.60;97.10;;;;;;4995907;28;20072;-89
2023/04/14 12:10:33;;;;;;;1.58;0.88;;;22.60;96.40;;;;;;4974711;28;20579;-90
2023/04/14 12:13:03;;;;;;;1.55;0.70;;;22.50;97.20;;;;;;4988054;28;20496;-89
2023/04/14 12:15:31;;;;;;;1.25;0.63;;;22.40;95.80;;;;;;4984040;28;20232;-89
2023/04/14 12:17:58;;;;;;;1.17;0.60;;;22.40;98.20;;;;;;4983122;28;20033;-89
2023/04/14 12:20:26;;;;;;;2.15;0.77;;;22.50;99.70;;;;;;4943503;28;20050;-88
2023/04/14 12:22:59;;;;;;;0.90;0.70;;;22.70;97.30;;;;;;4991837;28;20029;-90
2023/04/14 12:25:29;;;;;;;1.63;0.68;;;22.80;98.30;;;;;;4986752;28;20040;-89
2023/04/14 12:27:55;;;;;;;1.23;0.60;;;22.80;97.90;;;;;;4976344;28;20025;-89
2023/04/14 12:30:21;;;;;;;1.37;0.50;;;22.70;97.00;;;;;;4990951;28;20721;-89
2023/04/14 12:32:46;;;;;;;2.63;0.50;;;22.70;98.10;;;;;;4996394;28;20442;-89
2023/04/14 12:35:12;;;;;;;1.13;0.60;;;22.80;99.20;;;;;;4989636;28;20626;-87
2023/04/14 12:37:40;;;;;;;0.88;0.70;;;23.00;99.30;;;;;;5009170;28;20404;-89
2023/04/14 12:40:06;;;;;;;1.50;0.80;;;23.20;99.20;;;;;;4994107;28;20022;-90
2023/04/14 12:42:47;;;;;;;1.53;0.70;;;23.40;98.90;;;;;;5002177;28;20322;-86
2023/04/14 12:45:13;;;;;;;0.98;0.77;;;23.60;97.40;;;;;;5011602;28;20021;-90
2023/04/14 12:47:39;;;;;;;1.00;0.70;;;23.60;96.70;;;;;;4979190;28;20137;-88
2023/04/14 12:50:24;;;;;;;1.00;0.60;;;23.50;96.70;;;;;;5015838;28;20029;-89
2023/04/14 12:52:50;;;;;;;1.73;0.73;;;23.40;93.80;;;;;;5014610;28;20120;-90
2023/04/14 12:55:21;;;;;;;1.77;0.80;;;23.30;96.90;;;;;;4989515;28;20028;-87
2023/04/14 12:57:46;;;;;;;2.45;0.75;;;23.30;96.00;;;;;;5001339;28;20599;-89